This is the latest recevied weather packets stored in our database for station/object N0QWM. If no packets are shown the sender has not sent any weather packets the latest 10 day(s).
| Time | Temp. | Humidity | Pressure | Rain* | Wind** | Luminosity | Snow |
|---|---|---|---|---|---|---|---|
| 1788358959 | 31.11° C | 72% | 1024.9 hPa | 0 mm | - | 473 W/m² | - |
| 1788358658 | 31.11° C | 71% | 1024.8 hPa | 0 mm | - | 454 W/m² | - |
| 1788358354 | 31.11° C | 70% | 1024.6 hPa | 0 mm | - | 429 W/m² | - |
| 1788358049 | 31.67° C | 69% | 1025.1 hPa | 0 mm | - | 401 W/m² | - |
| 1788357744 | 30.56° C | 71% | 1024.9 hPa | 0 mm | - | 363 W/m² | - |
| 1788357443 | 30.56° C | 72% | 1024.9 hPa | 0 mm | - | 329 W/m² | - |
| 1788357139 | 30° C | 75% | 1024.8 hPa | 0 mm | - | 317 W/m² | - |
| 1788356839 | 29.44° C | 76% | 1024.9 hPa | 0 mm | - | 302 W/m² | - |
| 1788356534 | 28.89° C | 78% | 1024.8 hPa | 0 mm | - | 288 W/m² | - |
| 1788356229 | 27.78° C | 83% | 1024.7 hPa | 0 mm | - | 263 W/m² | - |
| 1788355928 | 27.22° C | 85% | 1024.8 hPa | 0 mm | - | 74 W/m² | - |
| 1788355624 | 26.67° C | 86% | 1024.8 hPa | 0 mm | - | 62 W/m² | - |
| 1788355319 | 26.67° C | 87% | 1024.7 hPa | 0 mm | - | 60 W/m² | - |
| 1788355015 | 26.67° C | 88% | 1024.7 hPa | 0 mm | - | 57 W/m² | - |
| 1788354710 | 26.11° C | 89% | 1024.8 hPa | 0 mm | - | 56 W/m² | - |
| 1788354406 | 25.56° C | 91% | 1024.7 hPa | 0 mm | - | 122 W/m² | - |
| 1788354101 | 25° C | 92% | 1024.8 hPa | 0 mm | - | 64 W/m² | - |
| 1788353797 | 25° C | 93% | 1024.7 hPa | 0 mm | - | 47 W/m² | - |
| 1788353492 | 24.44° C | 95% | 1024.7 hPa | 0 mm | - | 46 W/m² | - |
| 1788353189 | 24.44° C | 96% | 1024.7 hPa | 0 mm | - | 42 W/m² | - |
| 1788352888 | 23.89° C | 96% | 1024.8 hPa | 0 mm | - | 41 W/m² | - |
| 1788352585 | 23.89° C | 97% | 1024.7 hPa | 0 mm | - | 38 W/m² | - |
| 1788352279 | 23.89° C | 97% | 1024.6 hPa | 0 mm | - | 36 W/m² | - |
| 1788351978 | 23.33° C | 98% | 1024.5 hPa | 0 mm | - | 33 W/m² | - |
| 1788351674 | 23.33° C | 98% | 1024.7 hPa | 0 mm | - | 30 W/m² | - |
* Rain latest hour (hover to see other rain measurements)
** Current wind speed in m/s (hover to see current wind gust speed)